Time;durP1;ratioP1;P1;durP2;ratioP2;P2;SDS_P1;SDS_P2;PMS_P1;PMS_P2;Temp;Humidity;BMP_temperature;BMP_pressure;BME280_temperature;BME280_humidity;BME280_pressure;Samples;Min_cycle;Max_cycle;Signal;HPM_P1;HPM_P2
2023/09/12 00:00:52;;;;;;;8.18;4.28;;;20.20;61.30;;;;;;5104864;27;20026;-61
2023/09/12 00:03:22;;;;;;;10.07;3.85;;;20.20;61.20;;;;;;5115412;27;20031;-61
2023/09/12 00:05:56;;;;;;;9.48;3.83;;;20.20;61.10;;;;;;5111544;27;20110;-61
2023/09/12 00:08:22;;;;;;;12.70;4.00;;;20.20;61.10;;;;;;5089684;28;20045;-61
2023/09/12 00:10:59;;;;;;;8.82;3.90;;;20.10;60.60;;;;;;5091186;28;20074;-60
2023/09/12 00:13:25;;;;;;;12.15;4.07;;;20.10;61.30;;;;;;5089858;28;20028;-61
2023/09/12 00:15:51;;;;;;;8.73;4.10;;;20.10;60.60;;;;;;5081536;28;20466;-60
2023/09/12 00:18:16;;;;;;;14.90;4.70;;;20.00;60.60;;;;;;5098741;28;20497;-61
2023/09/12 00:20:42;;;;;;;13.65;3.95;;;20.00;60.70;;;;;;5085757;28;20024;-60
2023/09/12 00:23:08;;;;;;;8.07;4.05;;;20.00;60.80;;;;;;5095626;28;20034;-60
2023/09/12 00:25:33;;;;;;;13.30;3.92;;;19.90;60.80;;;;;;5091288;28;20032;-61
2023/09/12 00:27:59;;;;;;;8.30;3.92;;;19.90;61.00;;;;;;5071821;28;20035;-61
2023/09/12 00:30:25;;;;;;;13.00;4.10;;;19.90;61.20;;;;;;5098760;28;20031;-60
2023/09/12 00:32:50;;;;;;;12.18;4.90;;;19.80;61.00;;;;;;5089205;28;20077;-61
2023/09/12 00:35:16;;;;;;;8.68;3.70;;;19.80;61.10;;;;;;5090997;28;20020;-61
2023/09/12 00:37:41;;;;;;;6.65;3.80;;;19.80;61.30;;;;;;5088691;28;20024;-61
2023/09/12 00:40:07;;;;;;;10.40;3.83;;;19.70;61.30;;;;;;5088140;28;20331;-61
2023/09/12 00:42:33;;;;;;;8.43;3.80;;;19.70;61.30;;;;;;5089145;28;20131;-60
2023/09/12 00:44:59;;;;;;;7.22;3.55;;;19.70;61.50;;;;;;5016316;28;20016;-60
2023/09/12 00:47:26;;;;;;;7.75;3.85;;;19.60;61.50;;;;;;5091975;28;20777;-61
2023/09/12 00:49:54;;;;;;;12.57;4.00;;;19.60;61.70;;;;;;5082397;28;20039;-60
2023/09/12 00:52:22;;;;;;;13.65;4.00;;;19.60;61.80;;;;;;5081801;28;20441;-61
2023/09/12 00:54:48;;;;;;;9.20;3.72;;;19.60;62.00;;;;;;5093120;28;20045;-61
2023/09/12 00:57:14;;;;;;;12.20;4.10;;;19.60;62.00;;;;;;5090714;28;20024;-60
2023/09/12 00:59:40;;;;;;;11.68;3.97;;;19.50;61.90;;;;;;5081360;28;20510;-61
2023/09/12 01:02:06;;;;;;;9.80;3.70;;;19.50;61.90;;;;;;5083711;28;20020;-61
2023/09/12 01:04:32;;;;;;;7.78;4.07;;;19.50;61.90;;;;;;5079692;28;20017;-61
2023/09/12 01:06:58;;;;;;;7.63;3.45;;;19.50;62.00;;;;;;5085191;27;20043;-60
2023/09/12 01:09:24;;;;;;;8.50;3.72;;;19.50;62.20;;;;;;5092344;27;20024;-60
2023/09/12 01:11:50;;;;;;;8.70;3.42;;;19.50;62.10;;;;;;5086486;28;20496;-61
2023/09/12 01:14:16;;;;;;;10.00;4.07;;;19.50;62.20;;;;;;5104897;27;20031;-62
2023/09/12 01:16:41;;;;;;;8.88;4.32;;;19.50;62.40;;;;;;5104360;27;20839;-60
2023/09/12 01:19:09;;;;;;;25.63;3.88;;;19.50;62.50;;;;;;5109126;27;20501;-60
2023/09/12 01:21:50;;;;;;;8.77;3.75;;;19.50;62.60;;;;;;5102517;27;20039;-60
2023/09/12 01:24:34;;;;;;;12.73;4.00;;;19.40;63.80;;;;;;5109773;27;20194;-60
2023/09/12 01:27:21;;;;;;;9.90;3.85;;;19.50;63.10;;;;;;5111949;27;20538;-60
2023/09/12 01:29:52;;;;;;;10.45;3.60;;;19.40;63.00;;;;;;5101024;27;20414;-61
2023/09/12 01:32:19;;;;;;;7.82;3.70;;;19.40;62.30;;;;;;5109136;27;20059;-62
2023/09/12 01:34:45;;;;;;;11.25;4.90;;;19.40;62.30;;;;;;5118536;27;20019;-60
2023/09/12 01:37:11;;;;;;;12.68;4.65;;;19.40;62.30;;;;;;5112213;27;20073;-60
2023/09/12 01:39:37;;;;;;;7.72;3.50;;;19.40;62.20;;;;;;5108381;27;20024;-60
2023/09/12 01:42:03;;;;;;;9.05;3.53;;;19.40;62.40;;;;;;5104178;27;20053;-60
2023/09/12 01:44:37;;;;;;;17.38;4.65;;;19.30;62.50;;;;;;5112473;27;20025;-60
2023/09/12 01:47:05;;;;;;;6.70;4.13;;;19.30;63.10;;;;;;5101214;27;20059;-60
2023/09/12 01:49:33;;;;;;;12.68;4.20;;;19.30;62.60;;;;;;5106624;27;20092;-62
2023/09/12 01:51:59;;;;;;;10.10;4.22;;;19.30;62.80;;;;;;5105533;27;20474;-61
2023/09/12 01:54:27;;;;;;;8.65;3.83;;;19.30;62.70;;;;;;5105997;27;20042;-61
2023/09/12 01:56:57;;;;;;;10.43;3.90;;;19.30;62.90;;;;;;5109370;27;20030;-61
2023/09/12 01:59:23;;;;;;;12.98;3.95;;;19.30;63.10;;;;;;5105450;27;20138;-60
2023/09/12 02:01:49;;;;;;;13.98;4.07;;;19.20;62.90;;;;;;5107722;27;20093;-61
2023/09/12 02:04:14;;;;;;;9.98;4.20;;;19.20;62.90;;;;;;5098081;27;20016;-61
2023/09/12 02:06:40;;;;;;;8.30;3.75;;;19.20;63.10;;;;;;5102549;27;20104;-60
2023/09/12 02:09:06;;;;;;;9.65;4.07;;;19.20;63.20;;;;;;5109158;27;20066;-60
2023/09/12 02:11:31;;;;;;;8.88;3.83;;;19.20;63.00;;;;;;5105133;27;20518;-61
2023/09/12 02:13:57;;;;;;;8.43;3.88;;;19.20;63.10;;;;;;5102860;27;20043;-61
2023/09/12 02:16:23;;;;;;;9.13;3.72;;;19.20;63.10;;;;;;5104669;27;20027;-60
2023/09/12 02:18:48;;;;;;;10.48;4.25;;;19.20;63.10;;;;;;5085861;28;20044;-61
2023/09/12 02:21:15;;;;;;;10.88;4.03;;;19.10;63.00;;;;;;5106638;27;20051;-60
2023/09/12 02:23:41;;;;;;;8.75;4.00;;;19.10;63.00;;;;;;5105544;27;20081;-61
2023/09/12 02:26:07;;;;;;;9.13;4.65;;;19.10;63.20;;;;;;5108083;27;20092;-60
2023/09/12 02:28:33;;;;;;;14.30;4.22;;;19.10;63.20;;;;;;5106878;27;20384;-60
2023/09/12 02:30:59;;;;;;;8.98;3.92;;;19.00;63.20;;;;;;5108161;27;20367;-62
2023/09/12 02:33:24;;;;;;;6.53;4.10;;;19.00;63.90;;;;;;5113263;27;20089;-61
2023/09/12 02:35:50;;;;;;;9.15;3.97;;;19.00;63.30;;;;;;5108374;27;20043;-61
2023/09/12 02:38:17;;;;;;;10.30;3.95;;;19.00;63.40;;;;;;5112196;27;20074;-61
2023/09/12 02:40:43;;;;;;;7.97;3.90;;;18.90;63.30;;;;;;5110163;27;20934;-61
2023/09/12 02:43:08;;;;;;;18.30;4.47;;;18.90;63.30;;;;;;5108269;27;20335;-61
2023/09/12 02:45:34;;;;;;;9.95;3.97;;;18.90;63.40;;;;;;5104821;27;20024;-62
2023/09/12 02:48:00;;;;;;;12.23;4.13;;;18.90;63.40;;;;;;5103735;27;20039;-61
2023/09/12 02:50:25;;;;;;;17.90;4.53;;;18.90;63.40;;;;;;5105881;27;20023;-62
2023/09/12 02:52:51;;;;;;;11.60;4.03;;;18.80;63.40;;;;;;5094055;27;20038;-60
2023/09/12 02:55:17;;;;;;;12.95;4.05;;;18.80;63.40;;;;;;5089964;28;20035;-61
2023/09/12 02:57:42;;;;;;;8.13;4.57;;;18.80;63.60;;;;;;5108921;27;20114;-61
2023/09/12 03:00:09;;;;;;;10.98;4.25;;;18.70;63.70;;;;;;5102643;27;20532;-60
2023/09/12 03:02:34;;;;;;;8.73;3.83;;;18.70;63.80;;;;;;5104504;27;20383;-60
2023/09/12 03:05:01;;;;;;;9.40;4.38;;;18.70;63.70;;;;;;5102426;28;20042;-60
2023/09/12 03:07:27;;;;;;;11.38;4.10;;;18.70;63.70;;;;;;5099468;27;20117;-60
2023/09/12 03:09:53;;;;;;;11.70;3.97;;;18.60;63.80;;;;;;5086828;28;20027;-60
2023/09/12 03:12:18;;;;;;;9.20;3.63;;;18.60;64.00;;;;;;5084076;28;20126;-60
2023/09/12 03:14:44;;;;;;;9.10;3.88;;;18.60;64.20;;;;;;5070236;28;20024;-61
2023/09/12 03:17:10;;;;;;;7.68;4.00;;;18.50;64.20;;;;;;5075118;28;20159;-62
2023/09/12 03:19:35;;;;;;;13.10;4.00;;;18.50;64.30;;;;;;5095544;28;20024;-62
2023/09/12 03:22:01;;;;;;;10.27;4.30;;;18.50;64.30;;;;;;5080855;28;20471;-61
2023/09/12 03:24:28;;;;;;;11.30;4.38;;;18.50;64.50;;;;;;5086886;28;20020;-62
2023/09/12 03:26:55;;;;;;;10.07;4.30;;;18.50;64.60;;;;;;5081192;28;20467;-59
2023/09/12 03:29:21;;;;;;;10.27;4.47;;;18.50;64.60;;;;;;5086273;28;20732;-61
2023/09/12 03:31:46;;;;;;;11.95;4.30;;;18.50;64.80;;;;;;5098104;28;20024;-60
2023/09/12 03:34:12;;;;;;;8.73;4.35;;;18.40;64.80;;;;;;5081438;28;20039;-60
2023/09/12 03:36:38;;;;;;;11.20;4.18;;;18.50;64.80;;;;;;5089075;28;20035;-60
2023/09/12 03:39:05;;;;;;;10.63;4.07;;;18.50;64.80;;;;;;5093731;28;20609;-60
2023/09/12 03:41:31;;;;;;;11.63;4.47;;;18.40;64.70;;;;;;5091674;28;20020;-60
2023/09/12 03:43:57;;;;;;;8.55;3.70;;;18.40;64.70;;;;;;5079010;28;20396;-60
2023/09/12 03:46:22;;;;;;;9.60;3.80;;;18.40;64.60;;;;;;5004954;28;20039;-61
2023/09/12 03:48:49;;;;;;;8.45;3.83;;;18.40;64.70;;;;;;5093798;28;20016;-61
2023/09/12 03:51:15;;;;;;;14.80;4.13;;;18.40;64.60;;;;;;5082623;28;20029;-62
2023/09/12 03:53:40;;;;;;;13.07;4.00;;;18.40;64.80;;;;;;5082613;28;20380;-61
2023/09/12 03:56:06;;;;;;;9.88;4.60;;;18.40;64.80;;;;;;5081712;28;20040;-61
2023/09/12 03:58:32;;;;;;;7.72;4.13;;;18.40;64.90;;;;;;5082716;28;20876;-60
2023/09/12 04:00:57;;;;;;;11.20;4.55;;;18.40;64.80;;;;;;5092605;28;20023;-60
2023/09/12 04:03:23;;;;;;;13.30;4.35;;;18.40;64.80;;;;;;5084880;28;20027;-61
2023/09/12 04:05:50;;;;;;;9.00;4.32;;;18.40;64.80;;;;;;5085013;28;20055;-60
2023/09/12 04:08:16;;;;;;;9.70;3.97;;;18.30;64.80;;;;;;5086186;28;20064;-61
2023/09/12 04:10:43;;;;;;;11.88;3.90;;;18.30;64.80;;;;;;5088092;28;20024;-60
2023/09/12 04:13:08;;;;;;;8.93;4.35;;;18.30;64.90;;;;;;5091696;28;20028;-60
2023/09/12 04:15:34;;;;;;;8.38;4.25;;;18.30;64.90;;;;;;5083194;28;20023;-61
2023/09/12 04:18:00;;;;;;;10.63;4.43;;;18.30;65.00;;;;;;5090659;28;20026;-60
2023/09/12 04:20:26;;;;;;;10.65;4.88;;;18.30;65.10;;;;;;5067163;28;20455;-60
2023/09/12 04:22:51;;;;;;;12.88;5.97;;;18.20;65.10;;;;;;5086526;28;20028;-61
2023/09/12 04:25:19;;;;;;;22.08;8.93;;;18.20;65.10;;;;;;5085900;28;20039;-59
2023/09/12 04:27:45;;;;;;;21.42;10.55;;;18.20;65.00;;;;;;5086528;28;20020;-61
2023/09/12 04:30:11;;;;;;;22.02;10.40;;;18.20;65.00;;;;;;5090405;28;20020;-61
2023/09/12 04:32:37;;;;;;;19.05;9.00;;;18.20;65.00;;;;;;5066884;28;20479;-60
2023/09/12 04:35:03;;;;;;;13.85;8.30;;;18.20;65.00;;;;;;5068263;28;20031;-60
2023/09/12 04:37:29;;;;;;;20.40;9.70;;;18.10;65.10;;;;;;5084305;28;20427;-60
2023/09/12 04:39:54;;;;;;;13.70;7.65;;;18.10;65.10;;;;;;5088680;28;20032;-60
2023/09/12 04:42:20;;;;;;;15.95;8.10;;;18.10;65.20;;;;;;5089280;28;20320;-61
2023/09/12 04:44:46;;;;;;;18.77;7.43;;;18.10;65.30;;;;;;5086345;28;20024;-59
2023/09/12 04:47:12;;;;;;;15.10;6.82;;;18.00;65.20;;;;;;5094572;28;20028;-61
2023/09/12 04:49:38;;;;;;;17.48;7.70;;;18.10;65.40;;;;;;5090835;28;20024;-61
2023/09/12 04:52:05;;;;;;;15.32;8.25;;;18.00;65.40;;;;;;5074508;28;20044;-61
2023/09/12 04:54:30;;;;;;;18.60;9.50;;;18.00;65.30;;;;;;5085526;28;20381;-62
2023/09/12 04:56:56;;;;;;;21.98;10.95;;;18.00;65.30;;;;;;5087947;28;20098;-60
2023/09/12 04:59:21;;;;;;;17.60;10.18;;;18.00;65.40;;;;;;5086639;28;20051;-60
2023/09/12 05:01:47;;;;;;;14.40;9.15;;;18.00;65.40;;;;;;5067768;28;20078;-60
2023/09/12 05:04:13;;;;;;;14.73;8.48;;;17.90;65.50;;;;;;5086490;28;20032;-60
2023/09/12 05:06:39;;;;;;;19.27;9.75;;;17.90;65.60;;;;;;5090577;27;20475;-62
2023/09/12 05:09:05;;;;;;;17.88;8.50;;;17.90;65.70;;;;;;5100754;27;20036;-61
2023/09/12 05:11:31;;;;;;;13.23;7.32;;;17.90;65.80;;;;;;5104642;27;20107;-62
2023/09/12 05:13:57;;;;;;;16.48;6.57;;;17.80;65.90;;;;;;5107895;27;20118;-61
2023/09/12 05:16:22;;;;;;;13.23;7.25;;;17.80;65.90;;;;;;5099480;27;20462;-60
2023/09/12 05:18:49;;;;;;;10.90;6.25;;;17.80;65.90;;;;;;5104382;27;20031;-60
2023/09/12 05:21:15;;;;;;;20.15;7.60;;;17.80;66.10;;;;;;5111728;27;20538;-61
2023/09/12 05:23:41;;;;;;;11.35;6.68;;;17.80;67.00;;;;;;5105690;27;20028;-62
2023/09/12 05:26:07;;;;;;;10.32;6.10;;;17.80;66.40;;;;;;5106156;27;20711;-62
2023/09/12 05:28:33;;;;;;;10.35;6.28;;;17.90;66.50;;;;;;5110833;27;20028;-60
2023/09/12 05:30:59;;;;;;;12.40;6.22;;;17.90;66.60;;;;;;5111648;27;20028;-62
2023/09/12 05:33:24;;;;;;;11.98;6.25;;;17.90;66.70;;;;;;5099258;28;20047;-61
2023/09/12 05:35:50;;;;;;;14.30;5.75;;;17.90;66.70;;;;;;5097307;28;20032;-60
2023/09/12 05:38:16;;;;;;;14.25;4.65;;;18.00;66.70;;;;;;5104347;27;20027;-60
2023/09/12 05:40:41;;;;;;;10.65;5.03;;;18.00;66.70;;;;;;5107172;27;20470;-60
2023/09/12 05:43:07;;;;;;;10.10;4.97;;;18.10;66.90;;;;;;5107112;27;20529;-60
2023/09/12 05:45:33;;;;;;;9.02;4.65;;;18.10;66.70;;;;;;5019085;27;20024;-60
2023/09/12 05:47:59;;;;;;;8.85;4.68;;;18.10;66.70;;;;;;5099723;27;20020;-60
2023/09/12 05:50:25;;;;;;;12.93;4.97;;;18.20;66.90;;;;;;5097931;28;20024;-61
2023/09/12 05:52:51;;;;;;;18.65;5.22;;;18.20;66.90;;;;;;5107133;27;20057;-60
2023/09/12 05:55:17;;;;;;;13.95;5.13;;;18.30;66.90;;;;;;5101103;27;20290;-61
2023/09/12 05:57:43;;;;;;;11.10;5.47;;;18.40;66.80;;;;;;5101319;27;20020;-60
2023/09/12 06:00:11;;;;;;;20.25;5.70;;;18.50;66.90;;;;;;5106774;27;20041;-59
2023/09/12 06:02:38;;;;;;;13.35;5.65;;;18.50;66.70;;;;;;5099150;27;20049;-62
2023/09/12 06:05:04;;;;;;;10.07;5.10;;;18.60;66.70;;;;;;5105348;27;20403;-61
2023/09/12 06:07:32;;;;;;;26.98;5.95;;;18.70;66.80;;;;;;5106502;27;20050;-62
2023/09/12 06:09:57;;;;;;;19.90;5.55;;;18.80;66.80;;;;;;5083492;27;20042;-60
2023/09/12 06:12:23;;;;;;;15.65;6.13;;;18.90;66.70;;;;;;5105343;27;20114;-60
2023/09/12 06:14:49;;;;;;;24.98;5.75;;;19.00;66.50;;;;;;5103520;27;20028;-60
2023/09/12 06:17:15;;;;;;;19.00;5.43;;;19.10;66.40;;;;;;5101046;27;20577;-63
2023/09/12 06:19:40;;;;;;;22.48;6.15;;;19.20;66.30;;;;;;5083364;28;21498;-60
2023/09/12 06:22:06;;;;;;;24.42;6.05;;;19.30;66.10;;;;;;5084604;28;20110;-62
2023/09/12 06:24:32;;;;;;;23.92;5.70;;;19.30;65.90;;;;;;5102096;27;20143;-60
2023/09/12 06:26:57;;;;;;;17.40;5.72;;;19.40;65.90;;;;;;5115545;27;20121;-61
2023/09/12 06:29:23;;;;;;;21.05;5.88;;;19.50;65.70;;;;;;5101997;27;20062;-61
2023/09/12 06:31:49;;;;;;;19.65;5.28;;;19.60;65.60;;;;;;5104526;27;20023;-61
2023/09/12 06:34:14;;;;;;;14.75;4.75;;;19.70;65.50;;;;;;5102056;27;20108;-60
2023/09/12 06:36:44;;;;;;;24.40;5.90;;;19.80;65.40;;;;;;5105493;27;20016;-61
2023/09/12 06:39:10;;;;;;;19.15;5.10;;;19.90;65.30;;;;;;5103544;27;20369;-61
2023/09/12 06:41:36;;;;;;;22.70;5.35;;;20.00;65.00;;;;;;5105333;27;20028;-61
2023/09/12 06:44:02;;;;;;;23.20;5.32;;;20.10;65.00;;;;;;5105017;27;20040;-61
2023/09/12 06:46:28;;;;;;;17.33;5.65;;;20.20;65.10;;;;;;5109013;27;20305;-61
2023/09/12 06:48:54;;;;;;;19.73;5.10;;;20.30;64.90;;;;;;5022627;27;20043;-60
2023/09/12 06:51:24;;;;;;;13.77;4.50;;;20.40;64.80;;;;;;5106313;27;20031;-60
2023/09/12 06:53:51;;;;;;;10.63;4.38;;;20.50;64.60;;;;;;5104535;27;20768;-61
2023/09/12 06:56:16;;;;;;;13.45;4.97;;;20.70;64.30;;;;;;5109150;27;20024;-60
2023/09/12 06:58:42;;;;;;;12.45;4.95;;;20.80;64.10;;;;;;5104148;27;20031;-60
2023/09/12 07:01:08;;;;;;;11.50;5.40;;;20.90;63.70;;;;;;5103846;27;20067;-60
2023/09/12 07:03:35;;;;;;;17.77;6.03;;;21.00;63.40;;;;;;5108633;27;20136;-62
2023/09/12 07:06:01;;;;;;;15.85;5.88;;;21.10;63.30;;;;;;5105608;27;20023;-61
2023/09/12 07:08:28;;;;;;;13.77;5.13;;;21.30;63.10;;;;;;5108565;27;20043;-62
2023/09/12 07:10:54;;;;;;;15.40;5.90;;;21.40;63.10;;;;;;5118167;27;20028;-60
2023/09/12 07:13:21;;;;;;;19.27;5.80;;;21.50;63.10;;;;;;5088431;28;20409;-62
2023/09/12 07:15:47;;;;;;;15.57;5.72;;;21.70;63.00;;;;;;5080722;28;20032;-61
2023/09/12 07:18:14;;;;;;;14.70;5.97;;;21.80;62.50;;;;;;5105933;27;20027;-61
2023/09/12 07:20:40;;;;;;;17.30;5.63;;;21.90;62.40;;;;;;5111397;27;20031;-61
2023/09/12 07:23:07;;;;;;;14.18;5.70;;;22.10;62.20;;;;;;5083079;28;20120;-62
2023/09/12 07:25:41;;;;;;;17.17;5.80;;;22.30;62.10;;;;;;5110037;27;20020;-60
2023/09/12 07:28:08;;;;;;;16.48;5.90;;;22.40;61.80;;;;;;5108793;27;20083;-62
2023/09/12 07:30:33;;;;;;;12.23;5.97;;;22.60;61.60;;;;;;5106758;28;20063;-62
2023/09/12 07:32:59;;;;;;;20.70;6.70;;;22.70;61.10;;;;;;5103774;28;20259;-62
2023/09/12 07:35:25;;;;;;;13.80;6.22;;;22.90;60.70;;;;;;5101014;28;20115;-62
2023/09/12 07:37:50;;;;;;;11.20;5.18;;;23.00;60.40;;;;;;5100212;28;20031;-62
2023/09/12 07:40:16;;;;;;;15.75;6.25;;;23.10;60.20;;;;;;5098904;28;20032;-61
2023/09/12 07:42:42;;;;;;;18.80;6.00;;;23.30;60.10;;;;;;5109389;28;20023;-61
2023/09/12 07:45:08;;;;;;;16.50;6.07;;;23.50;60.00;;;;;;5012242;28;20028;-62
2023/09/12 07:47:34;;;;;;;23.13;6.78;;;23.60;59.90;;;;;;5110746;28;20066;-63
2023/09/12 07:50:00;;;;;;;12.40;5.95;;;23.70;59.20;;;;;;5111147;28;20449;-62
2023/09/12 07:52:26;;;;;;;12.85;6.22;;;23.80;59.00;;;;;;5106457;28;20031;-61
2023/09/12 07:54:56;;;;;;;11.10;6.53;;;24.00;59.10;;;;;;5102790;28;20030;-62
2023/09/12 07:57:23;;;;;;;16.33;5.40;;;24.10;58.80;;;;;;5108130;28;20027;-62
2023/09/12 07:59:48;;;;;;;16.77;6.30;;;24.20;58.70;;;;;;5100568;28;20023;-61
2023/09/12 08:02:14;;;;;;;15.05;5.43;;;24.20;58.70;;;;;;5102827;28;20043;-62
2023/09/12 08:04:40;;;;;;;12.57;5.57;;;24.40;58.60;;;;;;5105073;28;20032;-60
2023/09/12 08:07:05;;;;;;;16.27;6.53;;;24.40;58.60;;;;;;5095020;28;20059;-60
2023/09/12 08:09:50;;;;;;;10.02;5.53;;;24.60;58.80;;;;;;5085084;28;20114;-62
2023/09/12 08:12:16;;;;;;;13.45;5.30;;;24.70;57.80;;;;;;5085535;28;20427;-62
2023/09/12 08:14:42;;;;;;;13.40;5.07;;;24.90;58.20;;;;;;5087517;28;20032;-62
2023/09/12 08:17:08;;;;;;;17.52;5.53;;;25.00;58.30;;;;;;5088021;28;20035;-62
2023/09/12 08:19:34;;;;;;;12.65;5.20;;;25.20;58.00;;;;;;5087613;28;20029;-62
2023/09/12 08:21:59;;;;;;;8.75;5.03;;;25.40;58.20;;;;;;5085550;28;20051;-63
2023/09/12 08:24:25;;;;;;;9.63;5.43;;;25.50;58.30;;;;;;5083706;28;20526;-62
2023/09/12 08:26:51;;;;;;;11.68;5.95;;;25.60;57.50;;;;;;5089356;28;20024;-61
2023/09/12 08:29:16;;;;;;;20.92;5.90;;;25.70;57.30;;;;;;5083212;28;20417;-61
2023/09/12 08:31:42;;;;;;;12.52;5.38;;;25.80;57.00;;;;;;5084859;28;20027;-63
2023/09/12 08:34:08;;;;;;;15.82;5.80;;;25.90;56.90;;;;;;5087829;28;20039;-62
2023/09/12 08:36:35;;;;;;;12.82;5.07;;;26.10;57.10;;;;;;5078788;28;20086;-60
2023/09/12 08:39:01;;;;;;;12.10;5.40;;;26.20;57.00;;;;;;5088614;28;20031;-62
2023/09/12 08:41:27;;;;;;;14.25;6.20;;;26.30;57.10;;;;;;5071617;28;20027;-61
2023/09/12 08:43:55;;;;;;;11.05;5.60;;;26.40;56.80;;;;;;5088934;28;20108;-62
2023/09/12 08:46:21;;;;;;;12.38;6.00;;;26.60;56.80;;;;;;5087334;28;20032;-62
2023/09/12 08:48:49;;;;;;;9.70;4.97;;;26.80;56.80;;;;;;5085227;28;20123;-62
2023/09/12 08:51:14;;;;;;;13.57;5.82;;;26.90;56.50;;;;;;5090734;28;20041;-62
2023/09/12 08:53:40;;;;;;;10.13;5.13;;;27.00;56.20;;;;;;5085596;28;20398;-61
2023/09/12 08:56:06;;;;;;;12.68;5.78;;;27.20;56.00;;;;;;5091162;28;20080;-62
2023/09/12 08:58:34;;;;;;;8.45;5.20;;;27.30;55.70;;;;;;5076536;28;20035;-61
2023/09/12 09:01:00;;;;;;;16.23;5.82;;;27.40;55.70;;;;;;5080666;28;20035;-63
2023/09/12 09:03:27;;;;;;;11.13;6.00;;;27.50;55.50;;;;;;5074680;28;20016;-62
2023/09/12 09:05:55;;;;;;;10.05;6.40;;;27.70;55.50;;;;;;5080316;28;20428;-61
2023/09/12 09:08:23;;;;;;;12.05;5.53;;;27.80;55.00;;;;;;5095680;28;20047;-61
2023/09/12 09:10:57;;;;;;;13.77;6.25;;;27.90;54.70;;;;;;5086247;27;20067;-62
2023/09/12 09:13:23;;;;;;;9.95;5.97;;;28.00;54.30;;;;;;5101837;27;20036;-61
2023/09/12 09:15:48;;;;;;;14.27;5.80;;;28.10;54.60;;;;;;5103829;27;20028;-62
2023/09/12 09:18:14;;;;;;;16.85;6.82;;;28.20;54.60;;;;;;5098095;27;20423;-62
2023/09/12 09:20:45;;;;;;;10.93;6.13;;;28.30;54.20;;;;;;5106468;27;20031;-62
2023/09/12 09:23:11;;;;;;;15.20;6.70;;;28.40;54.00;;;;;;5106767;27;20067;-63
2023/09/12 09:25:41;;;;;;;15.02;6.95;;;28.50;54.40;;;;;;5101988;27;20047;-62
2023/09/12 09:28:20;;;;;;;13.85;6.78;;;28.60;54.20;;;;;;5096987;27;20028;-61
2023/09/12 09:30:51;;;;;;;10.55;6.22;;;28.70;53.70;;;;;;5100730;27;20759;-61
2023/09/12 09:33:17;;;;;;;11.23;5.88;;;28.90;53.80;;;;;;5088642;28;20053;-62
2023/09/12 09:35:45;;;;;;;13.00;5.93;;;29.00;53.90;;;;;;5097487;27;20032;-61
2023/09/12 09:38:16;;;;;;;9.63;6.10;;;29.10;53.70;;;;;;5108179;27;20029;-63
2023/09/12 09:40:43;;;;;;;10.05;5.47;;;29.20;53.50;;;;;;5106601;27;20065;-61
2023/09/12 09:43:09;;;;;;;12.07;5.97;;;29.30;53.20;;;;;;5098339;27;20032;-61
2023/09/12 09:45:47;;;;;;;9.38;4.93;;;29.50;53.10;;;;;;5096530;27;20112;-62
2023/09/12 09:48:23;;;;;;;14.45;5.53;;;29.60;52.40;;;;;;5104747;27;20413;-63
2023/09/12 09:50:49;;;;;;;11.77;5.28;;;29.70;51.80;;;;;;5103725;27;20130;-62
2023/09/12 09:53:15;;;;;;;14.95;5.50;;;29.80;52.20;;;;;;5094080;27;20044;-61
2023/09/12 09:55:42;;;;;;;14.20;5.78;;;29.90;52.10;;;;;;5079997;28;20030;-62
2023/09/12 09:58:08;;;;;;;10.57;5.10;;;30.00;52.20;;;;;;5102742;28;20530;-62
2023/09/12 10:00:37;;;;;;;10.73;5.40;;;30.10;51.70;;;;;;5098997;27;20047;-63
2023/09/12 10:03:06;;;;;;;10.10;5.38;;;30.20;51.40;;;;;;5097960;27;20024;-61
2023/09/12 10:05:32;;;;;;;9.27;5.00;;;30.30;50.70;;;;;;5110600;27;20436;-62
2023/09/12 10:08:02;;;;;;;7.07;4.72;;;30.40;51.10;;;;;;5096446;27;20548;-62
2023/09/12 10:10:29;;;;;;;10.95;4.60;;;30.50;50.60;;;;;;5080653;28;20391;-61
2023/09/12 10:12:59;;;;;;;13.23;4.93;;;30.60;50.70;;;;;;5082577;28;20122;-62
2023/09/12 10:15:30;;;;;;;10.13;4.72;;;30.70;50.70;;;;;;5080240;28;20025;-62
2023/09/12 10:17:58;;;;;;;8.05;4.75;;;30.80;49.50;;;;;;5078219;28;20521;-62
2023/09/12 10:20:33;;;;;;;7.20;4.57;;;30.90;49.70;;;;;;5085151;28;20081;-62
2023/09/12 10:23:41;;;;;;;12.48;4.90;;;31.00;49.30;;;;;;5085341;28;20434;-62
2023/09/12 10:26:14;;;;;;;9.30;5.13;;;31.10;48.70;;;;;;5044636;28;20043;-63
2023/09/12 10:28:44;;;;;;;6.53;4.80;;;31.20;48.50;;;;;;5082627;28;20029;-63
2023/09/12 10:31:12;;;;;;;8.02;4.35;;;31.30;48.50;;;;;;5086889;28;20047;-62
2023/09/12 10:33:39;;;;;;;8.77;4.93;;;31.40;48.00;;;;;;5081086;28;20089;-61
2023/09/12 10:36:06;;;;;;;9.27;4.57;;;31.50;47.90;;;;;;5070164;28;20518;-62
2023/09/12 10:38:43;;;;;;;10.80;4.47;;;31.60;47.80;;;;;;5064554;28;20063;-63
2023/09/12 10:41:14;;;;;;;9.52;4.63;;;31.70;46.40;;;;;;5090804;28;20413;-63
2023/09/12 10:43:41;;;;;;;9.82;4.47;;;31.70;47.30;;;;;;5081078;28;20016;-63
2023/09/12 10:46:08;;;;;;;7.88;4.25;;;31.90;47.10;;;;;;5084961;28;20028;-62
2023/09/12 10:48:37;;;;;;;10.10;4.55;;;31.90;46.90;;;;;;5079139;28;20077;-62
2023/09/12 10:51:05;;;;;;;11.63;4.50;;;32.00;46.60;;;;;;5079813;28;20050;-61
2023/09/12 10:53:31;;;;;;;8.52;4.47;;;32.10;46.70;;;;;;5084969;28;20035;-62
2023/09/12 10:56:01;;;;;;;5.90;4.40;;;32.20;46.00;;;;;;5086771;28;20505;-63
2023/09/12 10:58:28;;;;;;;9.15;4.40;;;32.30;45.70;;;;;;5081096;28;20028;-62
2023/09/12 11:01:23;;;;;;;12.57;5.55;;;32.40;45.70;;;;;;5077967;28;20028;-63
2023/09/12 11:03:49;;;;;;;9.05;4.18;;;32.40;44.20;;;;;;5084899;28;20028;-62
2023/09/12 11:06:44;;;;;;;10.82;5.05;;;32.40;44.90;;;;;;5086260;28;20024;-64
2023/09/12 11:09:23;;;;;;;10.13;4.65;;;32.50;43.90;;;;;;5069955;28;20494;-63
2023/09/12 11:11:56;;;;;;;12.65;4.07;;;32.50;43.70;;;;;;5088688;28;20030;-62
2023/09/12 11:14:24;;;;;;;7.13;3.88;;;32.50;44.10;;;;;;5093658;28;20034;-63
2023/09/12 11:17:08;;;;;;;8.32;3.97;;;32.60;44.50;;;;;;5059951;28;20193;-62
2023/09/12 11:19:52;;;;;;;7.93;4.30;;;32.70;44.40;;;;;;5089718;28;20029;-62
2023/09/12 11:22:21;;;;;;;6.53;4.15;;;32.70;43.30;;;;;;5086903;28;20022;-61
2023/09/12 11:24:47;;;;;;;6.65;3.97;;;32.90;43.20;;;;;;5084936;28;20024;-62
2023/09/12 11:27:13;;;;;;;8.73;5.20;;;32.90;43.10;;;;;;5090806;28;20032;-62
2023/09/12 11:29:40;;;;;;;6.18;4.20;;;33.00;42.90;;;;;;5090407;28;20036;-62
2023/09/12 11:32:07;;;;;;;7.40;4.03;;;33.10;42.50;;;;;;5087001;28;20028;-62
2023/09/12 11:34:42;;;;;;;7.20;4.30;;;33.10;42.80;;;;;;5093912;28;20036;-62
2023/09/12 11:37:08;;;;;;;7.90;4.05;;;33.20;41.10;;;;;;5089796;28;20422;-63
2023/09/12 11:39:36;;;;;;;6.75;4.18;;;33.20;42.60;;;;;;5084340;28;20027;-62
2023/09/12 11:42:04;;;;;;;5.85;3.88;;;33.20;42.40;;;;;;5070097;28;20019;-63
2023/09/12 11:44:32;;;;;;;6.38;4.40;;;33.30;42.00;;;;;;5080398;28;20397;-63
2023/09/12 11:47:03;;;;;;;5.28;4.15;;;33.40;41.70;;;;;;5091770;28;20368;-63
2023/09/12 11:49:37;;;;;;;8.05;4.35;;;33.50;41.10;;;;;;5093689;28;20024;-63
2023/09/12 11:52:04;;;;;;;7.05;4.28;;;33.50;41.40;;;;;;5086675;28;20020;-63
2023/09/12 11:54:31;;;;;;;6.88;4.15;;;33.60;41.90;;;;;;5091908;28;20046;-63
2023/09/12 11:56:59;;;;;;;8.98;4.03;;;33.70;41.00;;;;;;5091192;28;20070;-62
2023/09/12 11:59:28;;;;;;;11.10;4.03;;;33.80;41.20;;;;;;5091086;28;20031;-63
2023/09/12 12:01:55;;;;;;;6.63;3.75;;;33.90;40.50;;;;;;5080535;28;20028;-62
2023/09/12 12:04:22;;;;;;;9.82;4.07;;;33.90;40.40;;;;;;5088665;28;20031;-63
2023/09/12 12:06:50;;;;;;;10.23;4.15;;;34.00;40.10;;;;;;5099497;28;20047;-63
2023/09/12 12:09:19;;;;;;;10.35;4.00;;;34.10;40.50;;;;;;5110444;27;20027;-63
2023/09/12 12:11:45;;;;;;;11.32;3.83;;;34.20;40.20;;;;;;5116318;27;20023;-63
2023/09/12 12:14:15;;;;;;;10.82;4.28;;;34.30;39.70;;;;;;5106517;27;20031;-63
2023/09/12 12:16:44;;;;;;;8.30;3.83;;;34.30;39.30;;;;;;5107765;27;20060;-62
2023/09/12 12:19:12;;;;;;;6.50;3.80;;;34.30;38.60;;;;;;5103671;27;20072;-63
2023/09/12 12:21:41;;;;;;;7.60;3.53;;;34.40;39.60;;;;;;5103167;27;20027;-63
2023/09/12 12:24:13;;;;;;;5.82;3.90;;;34.50;39.10;;;;;;5092565;27;20027;-63
2023/09/12 12:26:45;;;;;;;8.13;4.00;;;34.50;38.20;;;;;;5110890;27;20355;-63
2023/09/12 12:29:11;;;;;;;7.22;4.20;;;34.60;38.30;;;;;;5103378;27;20375;-62
2023/09/12 12:31:40;;;;;;;8.95;3.60;;;34.60;38.00;;;;;;5109001;27;20432;-62
2023/09/12 12:34:06;;;;;;;5.72;3.30;;;34.70;38.60;;;;;;5111599;27;20036;-63
2023/09/12 12:36:32;;;;;;;4.95;3.30;;;34.80;37.90;;;;;;5115126;27;20115;-63
2023/09/12 12:38:58;;;;;;;11.20;3.30;;;34.90;37.50;;;;;;5116346;27;20027;-62
2023/09/12 12:41:27;;;;;;;10.95;3.28;;;35.00;36.60;;;;;;5110525;27;20036;-63